CheckWX is a tool to help pilots better visualize weather data.  It is not intended as a substitute for an official pre-flight weather briefing.

03:03:52 UTC

EGWU METAR
RAF Northolt Airport
London, United Kingdom
Current

1 hour ago

EGWU 130150Z AUTO 30008KT 9999 // SCT017/// BKN021/// 06/05 Q0971
Observed
Dec-13 @ 01:50 UTC
Wind
  • 300° at 8 KTS
Visibility
10,000+ meters
Flight Rules
MVFR
Cloud Levels
  • Scattered at 1,700' AGL
  • Broken at 2,100' AGL
Temperature
C / 43°F
Dewpoint
C / 41°F
Humidity
93%
Altimeter
28.67" Hg
Pressure
970.92 hPa
Previous

2 hours ago

EGWU 130050Z AUTO 25008KT 9999 // BKN018/// SCT039/// 07/06 Q0970
Observed
Dec-13 @ 00:50 UTC
Wind
  • 250° at 8 KTS
Visibility
10,000+ meters
Flight Rules
MVFR
Cloud Levels
  • Broken at 1,800' AGL
  • Scattered at 3,900' AGL
Temperature
C / 45°F
Dewpoint
C / 43°F
Humidity
93%
Altimeter
28.64" Hg
Pressure
969.92 hPa
Previous

3 hours ago

EGWU 122350Z AUTO 23008KT 4400 // FEW012/// BKN039/// 07/07 Q0971
Observed
Dec-12 @ 23:50 UTC
Wind
  • 230° at 8 KTS
Visibility
4,400 meters
Flight Rules
IFR
Cloud Levels
  • Few at 1,200' AGL
  • Broken at 3,900' AGL
Temperature
C / 45°F
Dewpoint
C / 45°F
Humidity
100%
Altimeter
28.67" Hg
Pressure
970.92 hPa